Time;durP1;ratioP1;P1;durP2;ratioP2;P2;SDS_P1;SDS_P2;PMS_P1;PMS_P2;Temp;Humidity;BMP_temperature;BMP_pressure;BME280_temperature;BME280_humidity;BME280_pressure;Samples;Min_cycle;Max_cycle;Signal;HPM_P1;HPM_P2
2021/08/23 00:01:52;;;;;;;24.48;20.90;;;;;;;;;;5004224;28;20253;-70
2021/08/23 00:04:17;;;;;;;32.25;25.15;;;;;;;;;;4996391;28;20251;-71
2021/08/23 00:06:42;;;;;;;31.50;25.88;;;;;;;;;;5005242;28;20194;-71
2021/08/23 00:09:08;;;;;;;30.15;24.95;;;;;;;;;;5005392;28;20278;-71
2021/08/23 00:11:33;;;;;;;32.53;25.20;;;;;;;;;;4997337;28;23242;-71
2021/08/23 00:13:58;;;;;;;32.40;26.98;;;;;;;;;;5002680;28;20548;-71
2021/08/23 00:16:24;;;;;;;31.02;25.83;;;;;;;;;;4995429;28;20276;-71
2021/08/23 00:18:49;;;;;;;32.15;27.02;;;;;;;;;;5005971;28;20178;-69
2021/08/23 00:21:21;;;;;;;37.03;28.35;;;;;;;;;;4997638;28;20308;-69
2021/08/23 00:23:53;;;;;;;32.03;27.42;;;;;;;;;;5006343;28;20171;-69
2021/08/23 00:26:18;;;;;;;33.85;27.98;;;;;;;;;;4993068;28;20188;-69
2021/08/23 00:28:44;;;;;;;34.47;26.63;;;;;;;;;;5007053;28;20222;-69
2021/08/23 00:31:09;;;;;;;33.58;27.95;;;;;;;;;;4994695;28;20192;-70
2021/08/23 00:33:35;;;;;;;36.83;29.27;;;;;;;;;;5003629;28;20195;-69
2021/08/23 00:36:00;;;;;;;36.80;29.58;;;;;;;;;;4994806;28;20278;-69
2021/08/23 00:38:26;;;;;;;36.38;29.02;;;;;;;;;;5006513;28;20554;-69
2021/08/23 00:40:51;;;;;;;36.50;29.75;;;;;;;;;;4997918;28;20257;-69
2021/08/23 00:43:16;;;;;;;38.28;29.52;;;;;;;;;;5004070;28;20183;-70
2021/08/23 00:45:42;;;;;;;40.97;31.50;;;;;;;;;;5004384;28;20198;-69
2021/08/23 00:48:09;;;;;;;42.97;32.38;;;;;;;;;;4997463;28;20240;-70
2021/08/23 00:50:34;;;;;;;43.47;33.53;;;;;;;;;;5006059;28;20245;-69
2021/08/23 00:53:01;;;;;;;38.53;30.27;;;;;;;;;;4990633;28;20198;-70
2021/08/23 00:55:26;;;;;;;45.70;35.13;;;;;;;;;;5004345;28;20190;-70
2021/08/23 00:57:52;;;;;;;48.33;34.10;;;;;;;;;;4996239;28;20189;-70
2021/08/23 01:00:17;;;;;;;50.30;35.83;;;;;;;;;;5002575;28;20221;-70
2021/08/23 01:02:59;;;;;;;50.20;36.15;;;;;;;;;;4995468;28;20625;-71
2021/08/23 01:05:32;;;;;;;51.15;36.25;;;;;;;;;;5003328;28;20230;-70
2021/08/23 01:08:06;;;;;;;54.78;36.50;;;;;;;;;;4995826;28;20182;-70
2021/08/23 01:10:39;;;;;;;54.47;38.05;;;;;;;;;;5003945;28;20190;-71
2021/08/23 01:13:06;;;;;;;52.80;37.90;;;;;;;;;;4996647;28;20194;-69
2021/08/23 01:15:32;;;;;;;58.53;39.13;;;;;;;;;;5004046;28;20198;-70
2021/08/23 01:17:58;;;;;;;59.05;39.83;;;;;;;;;;4999201;28;20653;-70
2021/08/23 01:20:23;;;;;;;58.40;39.28;;;;;;;;;;5003347;28;20202;-71
2021/08/23 01:22:50;;;;;;;62.95;38.95;;;;;;;;;;5004165;28;20183;-74
2021/08/23 01:25:21;;;;;;;60.25;39.45;;;;;;;;;;4996436;28;20764;-73
2021/08/23 01:28:18;;;;;;;58.70;39.25;;;;;;;;;;5003895;28;20292;-73
2021/08/23 01:30:55;;;;;;;62.40;38.58;;;;;;;;;;5003240;28;20179;-73
2021/08/23 01:33:21;;;;;;;63.58;41.13;;;;;;;;;;5004494;28;20285;-72
2021/08/23 01:35:46;;;;;;;62.53;39.90;;;;;;;;;;4999151;28;20269;-72
2021/08/23 01:38:13;;;;;;;73.20;39.47;;;;;;;;;;5009617;28;20514;-74
2021/08/23 01:40:38;;;;;;;65.47;40.35;;;;;;;;;;4997287;28;20309;-73
2021/08/23 01:43:05;;;;;;;64.35;40.00;;;;;;;;;;5009184;28;20737;-72
2021/08/23 01:45:31;;;;;;;61.47;37.45;;;;;;;;;;4994435;28;20565;-73
2021/08/23 01:47:56;;;;;;;60.05;36.83;;;;;;;;;;5008537;28;20191;-73
2021/08/23 01:50:21;;;;;;;59.08;34.80;;;;;;;;;;4994929;28;20182;-73
2021/08/23 01:52:47;;;;;;;54.70;34.90;;;;;;;;;;5004123;28;20199;-73
2021/08/23 01:55:12;;;;;;;49.22;32.33;;;;;;;;;;4997111;28;20526;-74
2021/08/23 01:57:37;;;;;;;48.60;32.35;;;;;;;;;;5007770;28;20179;-73
2021/08/23 02:00:04;;;;;;;52.20;33.20;;;;;;;;;;4994495;28;20335;-73
2021/08/23 02:02:29;;;;;;;52.72;33.63;;;;;;;;;;5000232;28;20245;-72
2021/08/23 02:04:54;;;;;;;52.60;33.63;;;;;;;;;;5003389;28;20187;-74
2021/08/23 02:07:20;;;;;;;54.35;33.72;;;;;;;;;;4995140;28;20266;-73
2021/08/23 02:09:45;;;;;;;55.35;33.95;;;;;;;;;;5001217;28;20197;-74
2021/08/23 02:12:12;;;;;;;56.88;36.08;;;;;;;;;;4997117;28;20794;-73
2021/08/23 02:14:38;;;;;;;53.50;34.70;;;;;;;;;;5005416;28;20185;-72
2021/08/23 02:17:03;;;;;;;59.85;35.20;;;;;;;;;;4996694;28;20194;-73
2021/08/23 02:19:28;;;;;;;61.10;36.55;;;;;;;;;;5000744;28;20635;-72
2021/08/23 02:21:55;;;;;;;57.60;36.42;;;;;;;;;;5005832;28;20604;-74
2021/08/23 02:24:22;;;;;;;54.53;34.72;;;;;;;;;;5001840;28;20328;-72
2021/08/23 02:26:47;;;;;;;54.63;34.13;;;;;;;;;;4994710;28;20214;-74
2021/08/23 02:29:13;;;;;;;62.28;35.65;;;;;;;;;;5002340;28;20183;-73
2021/08/23 02:31:39;;;;;;;57.10;34.67;;;;;;;;;;4995727;28;20197;-73
2021/08/23 02:34:04;;;;;;;60.92;35.05;;;;;;;;;;5003963;28;20206;-72
2021/08/23 02:36:29;;;;;;;59.60;34.65;;;;;;;;;;5003900;28;20182;-72
2021/08/23 02:38:55;;;;;;;62.75;36.15;;;;;;;;;;4994179;28;20218;-72
2021/08/23 02:41:21;;;;;;;58.40;34.78;;;;;;;;;;5004927;28;20268;-73
2021/08/23 02:43:46;;;;;;;59.40;34.47;;;;;;;;;;4995261;28;20585;-74
2021/08/23 02:46:12;;;;;;;61.83;34.42;;;;;;;;;;5000706;28;20195;-74
2021/08/23 02:48:37;;;;;;;60.83;34.60;;;;;;;;;;4996067;28;20182;-74
2021/08/23 02:51:02;;;;;;;58.53;34.00;;;;;;;;;;5006197;28;20191;-73
2021/08/23 02:53:28;;;;;;;62.90;34.75;;;;;;;;;;4991971;28;20183;-73
2021/08/23 02:55:53;;;;;;;73.85;35.58;;;;;;;;;;4996087;28;20238;-74
2021/08/23 02:58:18;;;;;;;69.18;35.17;;;;;;;;;;4997201;28;20216;-74
2021/08/23 03:00:44;;;;;;;63.22;35.15;;;;;;;;;;5006989;28;21049;-75
2021/08/23 03:03:09;;;;;;;70.05;34.65;;;;;;;;;;5003424;28;20186;-74
2021/08/23 03:05:34;;;;;;;65.60;35.00;;;;;;;;;;5004249;28;20202;-74
2021/08/23 03:08:00;;;;;;;67.18;35.95;;;;;;;;;;5001999;28;20286;-74
2021/08/23 03:10:25;;;;;;;72.60;36.30;;;;;;;;;;4996489;28;20190;-74
2021/08/23 03:12:51;;;;;;;72.95;36.85;;;;;;;;;;5007907;28;20194;-73
2021/08/23 03:15:16;;;;;;;75.38;36.17;;;;;;;;;;4995718;28;20202;-74
2021/08/23 03:17:41;;;;;;;68.57;36.63;;;;;;;;;;5012956;28;20236;-73
2021/08/23 03:20:07;;;;;;;66.53;36.47;;;;;;;;;;5000674;28;20298;-75
2021/08/23 03:22:32;;;;;;;65.45;35.25;;;;;;;;;;5007055;28;20178;-74
2021/08/23 03:24:58;;;;;;;64.63;35.50;;;;;;;;;;4993409;28;20542;-73
2021/08/23 03:27:23;;;;;;;68.15;37.78;;;;;;;;;;5004639;28;20614;-74
2021/08/23 03:29:51;;;;;;;74.10;36.95;;;;;;;;;;4997856;28;20244;-74
2021/08/23 03:32:17;;;;;;;74.28;37.42;;;;;;;;;;5004991;28;20387;-75
2021/08/23 03:34:42;;;;;;;65.28;36.17;;;;;;;;;;5000868;28;20202;-73
2021/08/23 03:37:08;;;;;;;64.72;35.22;;;;;;;;;;5003485;28;20191;-73
2021/08/23 03:39:33;;;;;;;64.20;35.70;;;;;;;;;;5010623;28;20210;-73
2021/08/23 03:41:58;;;;;;;63.08;34.75;;;;;;;;;;4998596;28;20187;-74
2021/08/23 03:44:24;;;;;;;61.75;35.10;;;;;;;;;;5006647;28;20187;-75
2021/08/23 03:46:51;;;;;;;58.13;33.00;;;;;;;;;;4997951;28;20238;-75
2021/08/23 03:49:17;;;;;;;42.03;29.45;;;;;;;;;;5007823;28;20269;-74
2021/08/23 03:51:42;;;;;;;48.25;29.75;;;;;;;;;;4998188;28;20325;-74
2021/08/23 03:54:08;;;;;;;42.92;28.00;;;;;;;;;;5004627;28;20198;-74
2021/08/23 03:56:33;;;;;;;40.08;26.85;;;;;;;;;;4998444;28;20682;-75
2021/08/23 03:58:58;;;;;;;40.03;27.83;;;;;;;;;;5005122;28;20305;-74
2021/08/23 04:01:24;;;;;;;37.72;25.98;;;;;;;;;;5000816;28;20245;-75
2021/08/23 04:03:49;;;;;;;41.05;27.48;;;;;;;;;;5005022;28;20590;-74
2021/08/23 04:06:14;;;;;;;36.35;26.48;;;;;;;;;;5006902;28;20191;-75
2021/08/23 04:08:40;;;;;;;40.45;25.88;;;;;;;;;;4996713;28;20210;-75
2021/08/23 04:11:05;;;;;;;35.78;26.95;;;;;;;;;;5007042;28;20253;-74
2021/08/23 04:13:31;;;;;;;37.83;26.92;;;;;;;;;;4998416;28;20199;-74
2021/08/23 04:16:00;;;;;;;34.10;25.40;;;;;;;;;;5006326;28;20512;-75
2021/08/23 04:18:25;;;;;;;39.22;25.67;;;;;;;;;;4996387;28;20183;-73
2021/08/23 04:20:51;;;;;;;35.70;26.42;;;;;;;;;;5001976;28;20210;-73
2021/08/23 04:23:16;;;;;;;36.35;26.10;;;;;;;;;;4991192;28;20195;-74
2021/08/23 04:25:42;;;;;;;40.42;27.13;;;;;;;;;;5005698;28;20585;-73
2021/08/23 04:28:07;;;;;;;37.25;26.38;;;;;;;;;;5001654;28;20186;-74
2021/08/23 04:30:33;;;;;;;33.67;25.08;;;;;;;;;;5004097;28;20568;-75
2021/08/23 04:32:58;;;;;;;37.05;26.52;;;;;;;;;;4997649;28;22023;-74
2021/08/23 04:35:23;;;;;;;40.33;26.58;;;;;;;;;;5008585;28;20283;-73
2021/08/23 04:37:49;;;;;;;35.00;25.45;;;;;;;;;;5000687;28;20281;-73
2021/08/23 04:40:14;;;;;;;33.42;25.40;;;;;;;;;;5008486;28;20218;-74
2021/08/23 04:42:40;;;;;;;34.25;26.63;;;;;;;;;;5001220;28;20201;-74
2021/08/23 04:45:05;;;;;;;33.85;25.30;;;;;;;;;;4998570;28;20201;-73
2021/08/23 04:47:31;;;;;;;36.03;25.55;;;;;;;;;;5005445;28;20270;-74
2021/08/23 04:49:56;;;;;;;35.03;24.98;;;;;;;;;;4997655;28;20174;-73
2021/08/23 04:52:22;;;;;;;35.42;26.55;;;;;;;;;;5005592;28;20183;-73
2021/08/23 04:54:48;;;;;;;32.40;24.58;;;;;;;;;;4995543;28;20187;-74
2021/08/23 04:57:13;;;;;;;35.50;25.35;;;;;;;;;;5002454;28;20257;-75
2021/08/23 04:59:39;;;;;;;33.80;24.17;;;;;;;;;;4996618;28;20210;-74
2021/08/23 05:02:04;;;;;;;28.67;23.05;;;;;;;;;;5003962;28;20210;-73
2021/08/23 05:04:29;;;;;;;31.65;23.85;;;;;;;;;;4994939;28;20198;-73
2021/08/23 05:06:55;;;;;;;28.80;23.30;;;;;;;;;;5008560;28;20265;-73
2021/08/23 05:09:20;;;;;;;31.02;22.63;;;;;;;;;;5003567;28;20193;-73
2021/08/23 05:11:46;;;;;;;28.88;22.55;;;;;;;;;;4996144;28;20532;-74
2021/08/23 05:14:11;;;;;;;31.45;22.77;;;;;;;;;;5003684;28;20261;-73
2021/08/23 05:16:36;;;;;;;33.90;23.38;;;;;;;;;;4995889;28;20198;-73
2021/08/23 05:19:02;;;;;;;31.05;22.08;;;;;;;;;;5004761;28;20659;-73
2021/08/23 05:21:27;;;;;;;32.13;22.25;;;;;;;;;;4998169;28;20300;-73
2021/08/23 05:23:53;;;;;;;26.92;21.50;;;;;;;;;;5006635;28;20202;-73
2021/08/23 05:26:18;;;;;;;30.35;21.13;;;;;;;;;;4996672;28;20190;-73
2021/08/23 05:28:43;;;;;;;31.55;21.20;;;;;;;;;;5004875;28;20272;-73
2021/08/23 05:31:09;;;;;;;28.65;20.95;;;;;;;;;;4996110;28;20663;-74
2021/08/23 05:33:34;;;;;;;26.40;20.20;;;;;;;;;;5004162;28;20626;-73
2021/08/23 05:35:59;;;;;;;30.17;20.50;;;;;;;;;;5001731;28;20269;-73
2021/08/23 05:38:25;;;;;;;26.35;20.90;;;;;;;;;;5001432;28;20179;-74
2021/08/23 05:40:50;;;;;;;32.25;20.15;;;;;;;;;;5000501;28;20234;-74
2021/08/23 05:43:15;;;;;;;29.35;20.88;;;;;;;;;;4994099;28;20357;-72
2021/08/23 05:45:42;;;;;;;25.75;19.77;;;;;;;;;;5006125;28;20232;-72
2021/08/23 05:48:08;;;;;;;29.25;19.17;;;;;;;;;;4996408;28;20637;-71
2021/08/23 05:50:34;;;;;;;27.85;18.92;;;;;;;;;;5007104;28;20186;-72
2021/08/23 05:52:59;;;;;;;25.83;18.33;;;;;;;;;;4996345;28;20186;-71
2021/08/23 05:55:24;;;;;;;29.27;18.88;;;;;;;;;;5004139;28;20697;-72
2021/08/23 05:57:50;;;;;;;27.25;18.42;;;;;;;;;;4996881;28;20190;-72
2021/08/23 06:00:19;;;;;;;29.08;19.58;;;;;;;;;;5005258;28;20214;-72
2021/08/23 06:02:44;;;;;;;28.92;19.33;;;;;;;;;;4997995;28;20218;-73
2021/08/23 06:05:13;;;;;;;25.70;17.73;;;;;;;;;;5004958;28;20617;-73
2021/08/23 06:07:41;;;;;;;25.52;17.77;;;;;;;;;;4995468;28;20198;-72
2021/08/23 06:10:09;;;;;;;26.20;17.40;;;;;;;;;;5000618;28;20673;-73
2021/08/23 06:12:35;;;;;;;27.63;16.13;;;;;;;;;;4998252;28;20286;-73
2021/08/23 06:15:00;;;;;;;26.67;15.68;;;;;;;;;;5002055;28;20489;-72
2021/08/23 06:17:28;;;;;;;21.95;16.38;;;;;;;;;;5003024;28;20626;-72
2021/08/23 06:19:54;;;;;;;27.42;16.33;;;;;;;;;;4989001;28;20641;-72
2021/08/23 06:22:19;;;;;;;22.95;16.55;;;;;;;;;;4999187;28;20197;-72
2021/08/23 06:24:44;;;;;;;23.45;16.00;;;;;;;;;;4992812;28;20190;-72
2021/08/23 06:27:10;;;;;;;24.63;16.58;;;;;;;;;;5000299;28;20186;-72
2021/08/23 06:29:35;;;;;;;23.42;15.25;;;;;;;;;;4992778;28;20201;-72
2021/08/23 06:32:03;;;;;;;21.52;13.80;;;;;;;;;;5000908;28;20250;-72
2021/08/23 06:34:30;;;;;;;25.02;14.75;;;;;;;;;;4996034;28;20213;-74
2021/08/23 06:36:55;;;;;;;21.40;14.38;;;;;;;;;;5008652;28;20614;-73
2021/08/23 06:39:20;;;;;;;23.58;15.23;;;;;;;;;;4997672;28;20186;-73
2021/08/23 06:41:46;;;;;;;21.60;13.85;;;;;;;;;;5010712;28;20550;-73
2021/08/23 06:44:12;;;;;;;19.58;12.45;;;;;;;;;;4999534;28;20203;-73
2021/08/23 06:46:39;;;;;;;21.45;13.30;;;;;;;;;;5008455;28;20368;-74
2021/08/23 06:49:04;;;;;;;19.83;13.00;;;;;;;;;;5004565;28;20194;-73
2021/08/23 06:51:29;;;;;;;20.98;12.77;;;;;;;;;;4999189;28;20182;-73
2021/08/23 06:53:55;;;;;;;20.15;13.00;;;;;;;;;;5005165;28;20194;-73
2021/08/23 06:56:21;;;;;;;17.88;12.45;;;;;;;;;;4996816;28;20265;-73
2021/08/23 06:58:46;;;;;;;21.23;12.10;;;;;;;;;;5003986;28;20563;-73
2021/08/23 07:01:11;;;;;;;17.27;11.23;;;;;;;;;;4998504;28;20293;-73
2021/08/23 07:03:37;;;;;;;19.02;11.57;;;;;;;;;;5005187;28;20183;-75
2021/08/23 07:06:02;;;;;;;16.48;11.52;;;;;;;;;;4995446;28;20183;-73
2021/08/23 07:08:28;;;;;;;18.17;10.88;;;;;;;;;;5002205;28;20258;-73
2021/08/23 07:10:53;;;;;;;19.13;11.45;;;;;;;;;;4996280;28;20941;-72
2021/08/23 07:13:18;;;;;;;18.65;11.43;;;;;;;;;;5001150;28;20217;-74
2021/08/23 07:15:44;;;;;;;16.30;11.45;;;;;;;;;;5003197;28;20248;-73
2021/08/23 07:18:09;;;;;;;15.57;10.85;;;;;;;;;;5000105;28;20191;-72
2021/08/23 07:20:35;;;;;;;16.30;10.27;;;;;;;;;;5005172;28;20288;-74
2021/08/23 07:23:00;;;;;;;20.50;11.68;;;;;;;;;;4994670;28;20199;-73
2021/08/23 07:25:25;;;;;;;18.25;10.60;;;;;;;;;;5004619;28;20202;-73
2021/08/23 07:27:51;;;;;;;19.30;11.13;;;;;;;;;;5006486;28;20186;-74
2021/08/23 07:30:16;;;;;;;15.75;11.27;;;;;;;;;;5004012;28;20244;-73
2021/08/23 07:32:43;;;;;;;15.85;10.80;;;;;;;;;;4993869;28;20195;-73
2021/08/23 07:35:09;;;;;;;18.85;11.32;;;;;;;;;;4315534;28;10000711;-73
2021/08/23 07:37:37;;;;;;;14.15;10.02;;;;;;;;;;4995058;28;20190;-73
2021/08/23 07:40:03;;;;;;;12.93;9.18;;;;;;;;;;4986712;28;20214;-68
2021/08/23 07:42:28;;;;;;;14.80;9.52;;;;;;;;;;4984132;28;20195;-73
2021/08/23 07:44:55;;;;;;;13.43;8.70;;;;;;;;;;5005129;28;20190;-70
2021/08/23 07:47:20;;;;;;;16.38;9.38;;;;;;;;;;4991982;28;20203;-74
2021/08/23 07:49:45;;;;;;;17.73;10.00;;;;;;;;;;5003757;28;20190;-73
2021/08/23 07:52:11;;;;;;;14.45;8.60;;;;;;;;;;4999068;28;20627;-74
2021/08/23 07:54:36;;;;;;;16.20;9.15;;;;;;;;;;4995522;28;20198;-74
2021/08/23 07:57:03;;;;;;;14.13;8.95;;;;;;;;;;5001662;28;20230;-75
2021/08/23 07:59:28;;;;;;;15.23;9.27;;;;;;;;;;4994338;28;20565;-74
2021/08/23 08:01:54;;;;;;;15.00;8.98;;;;;;;;;;5000940;28;20194;-73
2021/08/23 08:04:19;;;;;;;15.00;9.50;;;;;;;;;;4995427;28;20198;-73
2021/08/23 08:06:44;;;;;;;10.82;8.82;;;;;;;;;;5001179;28;20219;-73
2021/08/23 08:09:11;;;;;;;11.25;8.77;;;;;;;;;;4994008;28;20269;-73
2021/08/23 08:11:36;;;;;;;10.32;8.48;;;;;;;;;;5001442;28;20232;-73
2021/08/23 08:14:02;;;;;;;13.85;8.27;;;;;;;;;;4995870;28;20187;-74
2021/08/23 08:16:27;;;;;;;14.55;7.93;;;;;;;;;;5014153;28;20581;-74
2021/08/23 08:18:54;;;;;;;10.95;7.35;;;;;;;;;;5000964;28;20186;-73
2021/08/23 08:21:20;;;;;;;10.85;7.30;;;;;;;;;;4649745;28;10000175;-75
2021/08/23 08:23:45;;;;;;;12.95;8.27;;;;;;;;;;5001701;28;20541;-74
2021/08/23 08:26:11;;;;;;;10.60;6.75;;;;;;;;;;4992230;28;20222;-73
2021/08/23 08:28:36;;;;;;;8.75;6.55;;;;;;;;;;5005621;28;20197;-73
2021/08/23 08:31:01;;;;;;;8.85;6.88;;;;;;;;;;4994164;28;20214;-74
2021/08/23 08:33:27;;;;;;;11.02;6.78;;;;;;;;;;5002518;28;20244;-75
2021/08/23 08:35:58;;;;;;;12.63;6.55;;;;;;;;;;4996565;28;20199;-76
2021/08/23 08:38:25;;;;;;;11.40;6.15;;;;;;;;;;5001192;28;20213;-75
2021/08/23 08:40:51;;;;;;;12.20;6.90;;;;;;;;;;4994539;28;20218;-74
2021/08/23 08:43:16;;;;;;;12.82;6.15;;;;;;;;;;5000199;28;20217;-75
2021/08/23 08:45:43;;;;;;;10.30;6.82;;;;;;;;;;4994594;28;20577;-75
2021/08/23 08:48:09;;;;;;;10.85;6.00;;;;;;;;;;4999897;28;20575;-73
2021/08/23 08:50:34;;;;;;;8.68;5.55;;;;;;;;;;4995216;28;20194;-73
2021/08/23 08:53:05;;;;;;;7.68;5.63;;;;;;;;;;4996790;28;20190;-72
2021/08/23 08:55:35;;;;;;;7.10;5.25;;;;;;;;;;5000096;28;20288;-75
2021/08/23 08:58:01;;;;;;;8.43;5.00;;;;;;;;;;4993805;28;20210;-71
2021/08/23 09:00:27;;;;;;;5.78;4.13;;;;;;;;;;4999329;28;20678;-73
2021/08/23 09:02:54;;;;;;;9.30;4.53;;;;;;;;;;4997758;28;20205;-73
2021/08/23 09:05:19;;;;;;;7.72;4.55;;;;;;;;;;5003567;28;20186;-74
2021/08/23 09:07:50;;;;;;;8.00;4.07;;;;;;;;;;4993354;28;20532;-74
2021/08/23 09:10:21;;;;;;;7.35;4.00;;;;;;;;;;5000373;28;20183;-72
2021/08/23 09:13:00;;;;;;;9.05;4.32;;;;;;;;;;4994884;28;20199;-73
2021/08/23 09:15:26;;;;;;;4.15;3.60;;;;;;;;;;5000582;28;20511;-72
2021/08/23 09:18:03;;;;;;;7.07;3.30;;;;;;;;;;4994106;28;20194;-73
2021/08/23 09:20:29;;;;;;;8.80;3.60;;;;;;;;;;5000865;28;20298;-73
2021/08/23 09:23:06;;;;;;;6.47;3.42;;;;;;;;;;4992265;28;20195;-73
2021/08/23 09:25:31;;;;;;;9.05;3.40;;;;;;;;;;5000037;28;20596;-72
2021/08/23 09:28:04;;;;;;;4.95;2.85;;;;;;;;;;4991635;28;20198;-72
2021/08/23 09:30:29;;;;;;;7.70;3.03;;;;;;;;;;4998764;28;20212;-74
2021/08/23 09:32:57;;;;;;;6.03;2.78;;;;;;;;;;4984957;28;20194;-73
2021/08/23 09:35:31;;;;;;;5.03;2.45;;;;;;;;;;5001350;28;20538;-73
2021/08/23 09:37:56;;;;;;;7.30;2.92;;;;;;;;;;4994798;28;20183;-73
2021/08/23 09:40:28;;;;;;;3.40;2.10;;;;;;;;;;5003602;28;20199;-73
2021/08/23 09:43:13;;;;;;;5.53;2.03;;;;;;;;;;5005175;28;20728;-74
2021/08/23 09:45:48;;;;;;;5.07;1.98;;;;;;;;;;5002587;28;20246;-73
2021/08/23 09:48:15;;;;;;;5.38;2.22;;;;;;;;;;4999496;28;20217;-72
2021/08/23 09:50:43;;;;;;;8.10;2.13;;;;;;;;;;5002587;28;20207;-73
2021/08/23 09:53:20;;;;;;;3.03;2.20;;;;;;;;;;5002013;28;20246;-73
2021/08/23 09:55:48;;;;;;;4.65;2.28;;;;;;;;;;4996556;28;20221;-74
2021/08/23 09:58:14;;;;;;;4.18;2.00;;;;;;;;;;5003645;28;20328;-71
2021/08/23 10:00:41;;;;;;;10.13;2.20;;;;;;;;;;5002339;28;20209;-74
2021/08/23 10:03:18;;;;;;;5.18;2.30;;;;;;;;;;5002350;28;20623;-72
2021/08/23 10:05:46;;;;;;;3.92;2.42;;;;;;;;;;4997498;28;20706;-74
2021/08/23 10:08:15;;;;;;;4.55;2.53;;;;;;;;;;5005654;28;20186;-74
2021/08/23 10:10:42;;;;;;;5.20;2.40;;;;;;;;;;4993563;28;20609;-75
2021/08/23 10:13:08;;;;;;;6.13;2.50;;;;;;;;;;5008013;28;20633;-74
2021/08/23 10:15:34;;;;;;;3.22;1.67;;;;;;;;;;5001021;28;20899;-70
2021/08/23 10:18:02;;;;;;;6.00;2.65;;;;;;;;;;5009570;28;20286;-72
2021/08/23 10:20:28;;;;;;;5.00;2.33;;;;;;;;;;4998875;28;20265;-74
2021/08/23 10:22:55;;;;;;;6.25;2.42;;;;;;;;;;5008867;28;20183;-73
2021/08/23 10:25:21;;;;;;;6.00;2.30;;;;;;;;;;4997821;28;20692;-69
2021/08/23 10:27:46;;;;;;;4.55;2.10;;;;;;;;;;5008746;28;20190;-73
2021/08/23 10:30:25;;;;;;;4.30;2.22;;;;;;;;;;5012510;28;20333;-73
2021/08/23 10:32:52;;;;;;;2.58;1.63;;;;;;;;;;4999453;28;20195;-74
2021/08/23 10:35:24;;;;;;;4.45;2.00;;;;;;;;;;5008195;28;20886;-74
2021/08/23 10:37:52;;;;;;;2.88;1.88;;;;;;;;;;4996021;28;20222;-73
2021/08/23 10:40:35;;;;;;;5.80;2.22;;;;;;;;;;5005810;28;20217;-73
2021/08/23 10:43:16;;;;;;;3.72;1.90;;;;;;;;;;4646103;28;10000907;-74
2021/08/23 10:45:42;;;;;;;5.32;2.05;;;;;;;;;;5004643;28;20505;-74
2021/08/23 10:48:19;;;;;;;3.40;1.67;;;;;;;;;;4996459;28;20261;-73
2021/08/23 10:51:04;;;;;;;4.60;1.80;;;;;;;;;;5003927;28;20197;-73
2021/08/23 10:53:37;;;;;;;4.10;1.83;;;;;;;;;;4993521;28;20334;-73
2021/08/23 10:56:17;;;;;;;3.83;1.38;;;;;;;;;;4997383;28;21023;-72
2021/08/23 10:58:44;;;;;;;7.93;1.70;;;;;;;;;;4993521;28;20674;-74
2021/08/23 11:01:18;;;;;;;3.15;1.58;;;;;;;;;;5002568;28;20668;-75
2021/08/23 11:03:43;;;;;;;3.17;1.50;;;;;;;;;;4998419;28;20205;-75
2021/08/23 11:06:09;;;;;;;5.82;1.83;;;;;;;;;;5002413;28;20634;-74
2021/08/23 11:08:35;;;;;;;4.60;1.77;;;;;;;;;;4647864;28;10000397;-72
2021/08/23 11:11:13;;;;;;;4.18;1.30;;;;;;;;;;5000688;28;20635;-72
2021/08/23 11:13:41;;;;;;;2.55;1.33;;;;;;;;;;4994560;28;20194;-73
2021/08/23 11:16:06;;;;;;;3.35;1.10;;;;;;;;;;5001614;28;20182;-73
2021/08/23 11:18:39;;;;;;;4.28;1.42;;;;;;;;;;4997408;28;20218;-73
2021/08/23 11:21:04;;;;;;;3.03;1.38;;;;;;;;;;5002748;28;20560;-74
2021/08/23 11:23:30;;;;;;;1.80;1.13;;;;;;;;;;4995561;28;20226;-73
2021/08/23 11:26:01;;;;;;;3.80;1.25;;;;;;;;;;5004957;28;20187;-74
2021/08/23 11:28:29;;;;;;;3.03;1.10;;;;;;;;;;5000576;28;20813;-73
2021/08/23 11:30:56;;;;;;;2.83;1.40;;;;;;;;;;5005267;28;20171;-74
2021/08/23 11:33:40;;;;;;;2.60;1.52;;;;;;;;;;5006235;28;20586;-73
2021/08/23 11:36:14;;;;;;;4.47;1.17;;;;;;;;;;5000602;28;20245;-72
2021/08/23 11:38:39;;;;;;;3.72;1.30;;;;;;;;;;5004738;28;20187;-74
2021/08/23 11:41:05;;;;;;;2.95;1.45;;;;;;;;;;4993998;28;20218;-73
2021/08/23 11:43:33;;;;;;;2.63;1.30;;;;;;;;;;5005112;28;20646;-73
2021/08/23 11:46:00;;;;;;;4.28;1.60;;;;;;;;;;4998598;28;20191;-74
2021/08/23 11:48:26;;;;;;;1.80;1.00;;;;;;;;;;5007376;28;20202;-73
2021/08/23 11:50:52;;;;;;;3.60;1.60;;;;;;;;;;4999288;28;20631;-72
2021/08/23 11:53:18;;;;;;;1.88;1.30;;;;;;;;;;5003246;28;20567;-72
2021/08/23 11:55:46;;;;;;;2.13;1.25;;;;;;;;;;4998712;28;20676;-71
2021/08/23 11:58:19;;;;;;;2.70;1.48;;;;;;;;;;5007857;28;20222;-72
2021/08/23 12:00:58;;;;;;;2.05;1.40;;;;;;;;;;4998132;28;20207;-72
2021/08/23 12:03:23;;;;;;;5.45;1.50;;;;;;;;;;5002301;28;20307;-72
2021/08/23 12:05:49;;;;;;;3.22;1.65;;;;;;;;;;4998295;28;20642;-72
2021/08/23 12:08:30;;;;;;;1.60;1.20;;;;;;;;;;5000725;28;20198;-72
2021/08/23 12:11:09;;;;;;;2.85;1.33;;;;;;;;;;4997808;28;20190;-72
2021/08/23 12:13:49;;;;;;;5.22;1.50;;;;;;;;;;5002203;28;20501;-73
2021/08/23 12:16:17;;;;;;;2.30;1.27;;;;;;;;;;4996122;28;20260;-73
2021/08/23 12:18:46;;;;;;;5.13;1.48;;;;;;;;;;5003656;28;20191;-73
2021/08/23 12:21:17;;;;;;;3.78;1.48;;;;;;;;;;4995704;28;20214;-72
2021/08/23 12:23:43;;;;;;;4.30;1.60;;;;;;;;;;5008591;28;20660;-73
2021/08/23 12:26:09;;;;;;;2.33;1.38;;;;;;;;;;5006307;28;20520;-73
2021/08/23 12:28:34;;;;;;;2.90;1.10;;;;;;;;;;4995370;28;20179;-72
2021/08/23 12:31:06;;;;;;;4.07;1.63;;;;;;;;;;5005120;28;20241;-70
2021/08/23 12:33:32;;;;;;;3.40;1.10;;;;;;;;;;4996106;28;20476;-72
2021/08/23 12:35:57;;;;;;;2.72;1.50;;;;;;;;;;5002356;28;20201;-71
2021/08/23 12:38:22;;;;;;;2.53;0.95;;;;;;;;;;4994187;28;20273;-70
2021/08/23 12:40:48;;;;;;;2.85;1.30;;;;;;;;;;5003542;28;20569;-73
2021/08/23 12:43:14;;;;;;;2.60;1.35;;;;;;;;;;4994083;28;20623;-71
2021/08/23 12:45:39;;;;;;;3.40;1.40;;;;;;;;;;5006217;28;20191;-72
2021/08/23 12:48:05;;;;;;;3.42;1.38;;;;;;;;;;4996902;28;20237;-73
2021/08/23 12:50:30;;;;;;;1.65;1.05;;;;;;;;;;5007073;28;20187;-70
2021/08/23 12:52:56;;;;;;;2.40;1.10;;;;;;;;;;4996302;28;20183;-72
2021/08/23 12:55:21;;;;;;;4.75;1.25;;;;;;;;;;5004143;28;20221;-72
2021/08/23 12:57:46;;;;;;;6.65;1.23;;;;;;;;;;4999809;28;20227;-73
2021/08/23 13:00:12;;;;;;;3.42;1.27;;;;;;;;;;4997152;28;20226;-72
2021/08/23 13:02:39;;;;;;;4.10;1.10;;;;;;;;;;5002868;28;20558;-72
2021/08/23 13:05:06;;;;;;;3.15;1.20;;;;;;;;;;4995462;28;20588;-72
2021/08/23 13:07:31;;;;;;;2.13;1.25;;;;;;;;;;5001510;28;20187;-72
2021/08/23 13:09:57;;;;;;;1.45;1.00;;;;;;;;;;4994806;28;20230;-71
2021/08/23 13:12:22;;;;;;;3.00;0.90;;;;;;;;;;5000120;28;20577;-74
2021/08/23 13:14:47;;;;;;;2.42;0.90;;;;;;;;;;4989753;28;20205;-72
2021/08/23 13:17:15;;;;;;;3.70;1.10;;;;;;;;;;5002476;28;20218;-72
2021/08/23 13:19:40;;;;;;;2.55;1.10;;;;;;;;;;4994239;28;20191;-73
2021/08/23 13:22:05;;;;;;;2.53;1.08;;;;;;;;;;5003629;28;20191;-73
2021/08/23 13:24:31;;;;;;;2.60;1.00;;;;;;;;;;4993059;28;20198;-72
2021/08/23 13:26:56;;;;;;;3.30;0.90;;;;;;;;;;5003376;28;20178;-68
2021/08/23 13:29:21;;;;;;;1.50;0.80;;;;;;;;;;5002357;28;20325;-73
2021/08/23 13:31:47;;;;;;;2.97;0.95;;;;;;;;;;4994808;28;20502;-71
2021/08/23 13:34:12;;;;;;;2.85;1.10;;;;;;;;;;4998304;28;20196;-72
2021/08/23 13:36:37;;;;;;;1.58;1.00;;;;;;;;;;4995482;28;20221;-72
2021/08/23 13:39:03;;;;;;;2.47;0.82;;;;;;;;;;5002023;28;21080;-72
2021/08/23 13:41:28;;;;;;;2.25;0.90;;;;;;;;;;4995480;28;20206;-73
2021/08/23 13:43:54;;;;;;;2.25;0.82;;;;;;;;;;5005353;28;20191;-73
2021/08/23 13:46:19;;;;;;;2.03;1.00;;;;;;;;;;4994383;28;20539;-73
2021/08/23 13:48:45;;;;;;;1.70;0.95;;;;;;;;;;5005204;28;20670;-72
2021/08/23 13:51:10;;;;;;;6.35;1.02;;;;;;;;;;4994768;28;20194;-72
2021/08/23 13:53:35;;;;;;;2.72;0.90;;;;;;;;;;5004089;28;20183;-73
2021/08/23 13:56:01;;;;;;;1.10;0.90;;;;;;;;;;4996202;28;20218;-72
2021/08/23 13:58:26;;;;;;;1.15;0.85;;;;;;;;;;5005208;28;20227;-72
2021/08/23 14:00:51;;;;;;;1.80;1.00;;;;;;;;;;5006093;28;20222;-73
2021/08/23 14:03:17;;;;;;;2.22;0.90;;;;;;;;;;4994001;28;20213;-73
2021/08/23 14:05:42;;;;;;;1.70;1.00;;;;;;;;;;5005943;28;20245;-73
2021/08/23 14:08:07;;;;;;;1.83;1.00;;;;;;;;;;4997778;28;20191;-73
2021/08/23 14:10:33;;;;;;;1.10;1.00;;;;;;;;;;5008032;28;20584;-73
2021/08/23 14:13:00;;;;;;;4.38;0.95;;;;;;;;;;4997450;28;20187;-73
2021/08/23 14:15:25;;;;;;;2.90;1.10;;;;;;;;;;5004754;28;20190;-72
2021/08/23 14:17:50;;;;;;;3.63;1.00;;;;;;;;;;4996518;28;20191;-72
2021/08/23 14:20:16;;;;;;;3.80;1.45;;;;;;;;;;5004770;28;20190;-72
2021/08/23 14:22:42;;;;;;;1.40;0.90;;;;;;;;;;4997624;28;20222;-72
2021/08/23 14:25:09;;;;;;;1.83;1.30;;;;;;;;;;5006612;28;20495;-73
2021/08/23 14:27:34;;;;;;;2.03;1.00;;;;;;;;;;4992246;28;20195;-72